Terminal Aerodrome Forecast
Issued by NWS Quad Cities IA IL

Home | Current Version | Previous Version | Text Only | Print | Product List | Glossary On
Versions: 1 2 3 4 5 6 7 8 9 10 11 12 13 14 15 16 17 18 19 20 21 22 23
000
FTUS43 KDVN 281209 CCA
TAFDBQ
TAF COR
KDBQ 281209Z 2812/2912 13006KT P6SM OVC200
      TEMPO 2814/2816 1SM TSRA BR BKN015CB OVC060
     FM281600 16010KT P6SM VCTS SCT050CB BKN200
      TEMPO 2816/2819 VRB25G35KT 2SM TSRA BKN025CB OVC040
     FM281900 14006KT P6SM SCT050 BKN100
     FM290100 19008KT 2SM TSRA BKN030CB OVC070
     FM290700 29008KT P6SM SCT250=

USA.gov is the U.S. government's official web portal to all federal, state and local government web resources and services.